sensor_id;sensor_type;location;lat;lon;timestamp;temperature;humidity
8402;DHT22;4238;48.404;9.498;2024-01-15T05:00:33;-1.50;17.60
8402;DHT22;4238;48.404;9.498;2024-01-15T05:03:00;-1.60;23.90
8402;DHT22;4238;48.404;9.498;2024-01-15T05:05:27;-1.60;27.10
8402;DHT22;4238;48.404;9.498;2024-01-15T05:07:53;-1.60;26.00
8402;DHT22;4238;48.404;9.498;2024-01-15T05:10:20;-1.70;27.70
8402;DHT22;4238;48.404;9.498;2024-01-15T05:12:47;-1.60;28.90
8402;DHT22;4238;48.404;9.498;2024-01-15T05:15:14;-1.70;29.60
8402;DHT22;4238;48.404;9.498;2024-01-15T05:17:42;-1.70;30.80
8402;DHT22;4238;48.404;9.498;2024-01-15T05:20:10;-1.70;36.70
8402;DHT22;4238;48.404;9.498;2024-01-15T05:22:37;-1.70;37.60
8402;DHT22;4238;48.404;9.498;2024-01-15T05:25:04;-1.70;40.80
8402;DHT22;4238;48.404;9.498;2024-01-15T05:27:31;-1.70;44.80
8402;DHT22;4238;48.404;9.498;2024-01-15T05:29:58;-1.80;45.40
8402;DHT22;4238;48.404;9.498;2024-01-15T05:32:25;-1.80;50.90
8402;DHT22;4238;48.404;9.498;2024-01-15T05:34:53;-1.80;54.10
8402;DHT22;4238;48.404;9.498;2024-01-15T05:37:20;-1.80;54.30
8402;DHT22;4238;48.404;9.498;2024-01-15T05:39:47;-1.80;44.20
8402;DHT22;4238;48.404;9.498;2024-01-15T05:42:13;-1.80;46.50
8402;DHT22;4238;48.404;9.498;2024-01-15T05:44:40;-1.80;52.40
8402;DHT22;4238;48.404;9.498;2024-01-15T05:47:07;-1.90;47.50
8402;DHT22;4238;48.404;9.498;2024-01-15T05:49:34;-1.90;44.70
8402;DHT22;4238;48.404;9.498;2024-01-15T05:52:03;-1.90;51.00
8402;DHT22;4238;48.404;9.498;2024-01-15T05:54:31;-1.90;42.90
8402;DHT22;4238;48.404;9.498;2024-01-15T05:56:58;-1.80;36.70
8402;DHT22;4238;48.404;9.498;2024-01-15T05:59:25;-1.90;35.50
8402;DHT22;4238;48.404;9.498;2024-01-15T06:01:52;-1.80;38.60
8402;DHT22;4238;48.404;9.498;2024-01-15T06:04:18;-1.80;32.90
8402;DHT22;4238;48.404;9.498;2024-01-15T06:06:45;-1.80;32.60
8402;DHT22;4238;48.404;9.498;2024-01-15T06:09:13;-1.80;31.10
8402;DHT22;4238;48.404;9.498;2024-01-15T06:11:41;-1.80;32.20
8402;DHT22;4238;48.404;9.498;2024-01-15T06:14:07;-1.80;21.20
8402;DHT22;4238;48.404;9.498;2024-01-15T06:16:34;-1.80;14.50
8402;DHT22;4238;48.404;9.498;2024-01-15T06:19:01;-1.90;7.50
8402;DHT22;4238;48.404;9.498;2024-01-15T06:21:28;-2.00;6.80
8402;DHT22;4238;48.404;9.498;2024-01-15T06:23:55;-2.00;4.50
8402;DHT22;4238;48.404;9.498;2024-01-15T06:26:24;-2.00;11.90
8402;DHT22;4238;48.404;9.498;2024-01-15T06:28:50;-2.00;12.40
8402;DHT22;4238;48.404;9.498;2024-01-15T06:31:17;-2.00;11.40
8402;DHT22;4238;48.404;9.498;2024-01-15T06:33:44;-2.00;14.30
8402;DHT22;4238;48.404;9.498;2024-01-15T06:36:13;-2.00;13.70
8402;DHT22;4238;48.404;9.498;2024-01-15T06:38:42;-1.90;16.70
8402;DHT22;4238;48.404;9.498;2024-01-15T06:41:09;-1.90;10.70
8402;DHT22;4238;48.404;9.498;2024-01-15T06:43:38;-1.90;12.10
8402;DHT22;4238;48.404;9.498;2024-01-15T06:46:04;-2.00;10.50
8402;DHT22;4238;48.404;9.498;2024-01-15T06:48:31;-1.90;10.00
8402;DHT22;4238;48.404;9.498;2024-01-15T06:50:58;-1.90;2.20
8402;DHT22;4238;48.404;9.498;2024-01-15T06:53:27;-1.90;1.40
8402;DHT22;4238;48.404;9.498;2024-01-15T06:55:53;-1.90;1.00
8402;DHT22;4238;48.404;9.498;2024-01-15T06:58:20;-1.90;1.00
8402;DHT22;4238;48.404;9.498;2024-01-15T07:00:48;-1.80;1.00
8402;DHT22;4238;48.404;9.498;2024-01-15T07:03:15;-1.90;1.00
8402;DHT22;4238;48.404;9.498;2024-01-15T07:05:42;-2.00;1.00
8402;DHT22;4238;48.404;9.498;2024-01-15T07:08:09;-2.00;1.00
8402;DHT22;4238;48.404;9.498;2024-01-15T07:10:36;-2.00;1.00
8402;DHT22;4238;48.404;9.498;2024-01-15T07:13:03;-1.90;1.00
8402;DHT22;4238;48.404;9.498;2024-01-15T07:15:31;-1.90;1.00
8402;DHT22;4238;48.404;9.498;2024-01-15T07:17:59;-1.80;1.00
8402;DHT22;4238;48.404;9.498;2024-01-15T07:20:26;-1.80;1.00
8402;DHT22;4238;48.404;9.498;2024-01-15T07:22:53;-1.80;1.00
8402;DHT22;4238;48.404;9.498;2024-01-15T07:25:19;-1.70;1.00
8402;DHT22;4238;48.404;9.498;2024-01-15T07:27:46;-1.70;1.00
8402;DHT22;4238;48.404;9.498;2024-01-15T07:30:14;-1.70;1.00
8402;DHT22;4238;48.404;9.498;2024-01-15T07:32:40;-1.70;1.00
8402;DHT22;4238;48.404;9.498;2024-01-15T07:35:09;-1.70;1.00
8402;DHT22;4238;48.404;9.498;2024-01-15T07:37:36;-1.60;1.00
8402;DHT22;4238;48.404;9.498;2024-01-15T07:40:03;-1.60;1.00
8402;DHT22;4238;48.404;9.498;2024-01-15T07:42:32;-1.60;1.00
8402;DHT22;4238;48.404;9.498;2024-01-15T07:44:59;-1.50;1.00
8402;DHT22;4238;48.404;9.498;2024-01-15T07:47:26;-1.50;1.00
8402;DHT22;4238;48.404;9.498;2024-01-15T07:49:53;-1.50;1.00
8402;DHT22;4238;48.404;9.498;2024-01-15T07:52:21;-1.50;1.00
8402;DHT22;4238;48.404;9.498;2024-01-15T07:54:48;-1.40;1.00
8402;DHT22;4238;48.404;9.498;2024-01-15T07:57:15;-1.40;1.00
8402;DHT22;4238;48.404;9.498;2024-01-15T07:59:41;-1.40;1.00
8402;DHT22;4238;48.404;9.498;2024-01-15T08:02:08;-1.40;1.00
8402;DHT22;4238;48.404;9.498;2024-01-15T08:04:36;-1.40;1.00
8402;DHT22;4238;48.404;9.498;2024-01-15T08:07:03;-1.40;1.00
8402;DHT22;4238;48.404;9.498;2024-01-15T08:09:32;-1.30;99.90
8402;DHT22;4238;48.404;9.498;2024-01-15T08:11:59;-1.20;99.90
8402;DHT22;4238;48.404;9.498;2024-01-15T08:14:26;-1.20;99.90
8402;DHT22;4238;48.404;9.498;2024-01-15T08:16:53;-1.20;99.90
8402;DHT22;4238;48.404;9.498;2024-01-15T08:19:20;-1.20;1.00
8402;DHT22;4238;48.404;9.498;2024-01-15T08:21:47;-1.10;1.00
8402;DHT22;4238;48.404;9.498;2024-01-15T08:24:15;-1.00;1.00
8402;DHT22;4238;48.404;9.498;2024-01-15T08:26:43;-1.00;1.00
8402;DHT22;4238;48.404;9.498;2024-01-15T08:29:10;-0.90;99.90
8402;DHT22;4238;48.404;9.498;2024-01-15T08:31:37;-0.80;1.00
8402;DHT22;4238;48.404;9.498;2024-01-15T08:34:04;-0.70;1.00
8402;DHT22;4238;48.404;9.498;2024-01-15T08:36:31;-0.60;1.00
8402;DHT22;4238;48.404;9.498;2024-01-15T08:39:00;-0.90;1.00
8402;DHT22;4238;48.404;9.498;2024-01-15T08:41:27;-0.80;60.80
8402;DHT22;4238;48.404;9.498;2024-01-15T08:43:55;-0.70;99.90
8402;DHT22;4238;48.404;9.498;2024-01-15T08:46:22;-0.60;99.90
8402;DHT22;4238;48.404;9.498;2024-01-15T08:48:49;-0.80;1.00
8402;DHT22;4238;48.404;9.498;2024-01-15T08:51:16;-0.60;1.00
8402;DHT22;4238;48.404;9.498;2024-01-15T08:53:44;-0.50;99.90
8402;DHT22;4238;48.404;9.498;2024-01-15T08:56:11;-0.50;99.90
8402;DHT22;4238;48.404;9.498;2024-01-15T08:58:37;-0.50;99.90
8402;DHT22;4238;48.404;9.498;2024-01-15T09:01:07;-0.60;1.00
8402;DHT22;4238;48.404;9.498;2024-01-15T09:03:34;-0.50;18.50
8402;DHT22;4238;48.404;9.498;2024-01-15T09:06:02;-0.50;99.90
8402;DHT22;4238;48.404;9.498;2024-01-15T09:08:29;-0.50;99.90
8402;DHT22;4238;48.404;9.498;2024-01-15T09:10:56;-0.40;99.90
8402;DHT22;4238;48.404;9.498;2024-01-15T09:13:23;-0.40;99.90
8402;DHT22;4238;48.404;9.498;2024-01-15T09:15:50;-0.30;1.00
8402;DHT22;4238;48.404;9.498;2024-01-15T09:18:18;-0.20;8.00
8402;DHT22;4238;48.404;9.498;2024-01-15T09:20:45;-0.10;1.00
8402;DHT22;4238;48.404;9.498;2024-01-15T09:23:12;-0.10;1.00
8402;DHT22;4238;48.404;9.498;2024-01-15T09:25:39;0.00;1.00
8402;DHT22;4238;48.404;9.498;2024-01-15T09:28:06;0.10;99.90
8402;DHT22;4238;48.404;9.498;2024-01-15T09:30:33;0.20;21.90
8402;DHT22;4238;48.404;9.498;2024-01-15T09:33:00;0.20;1.00
8402;DHT22;4238;48.404;9.498;2024-01-15T09:35:28;0.30;99.90
8402;DHT22;4238;48.404;9.498;2024-01-15T09:37:55;0.30;99.90
8402;DHT22;4238;48.404;9.498;2024-01-15T09:40:22;0.30;99.90
8402;DHT22;4238;48.404;9.498;2024-01-15T09:42:50;0.30;99.90
8402;DHT22;4238;48.404;9.498;2024-01-15T09:45:18;0.40;1.00
8402;DHT22;4238;48.404;9.498;2024-01-15T09:47:45;0.40;1.00
8402;DHT22;4238;48.404;9.498;2024-01-15T09:50:13;0.30;99.90
8402;DHT22;4238;48.404;9.498;2024-01-15T09:52:42;0.30;29.40
8402;DHT22;4238;48.404;9.498;2024-01-15T09:55:09;0.40;1.00
8402;DHT22;4238;48.404;9.498;2024-01-15T09:57:38;0.40;1.00
8402;DHT22;4238;48.404;9.498;2024-01-15T10:00:07;0.40;1.00
8402;DHT22;4238;48.404;9.498;2024-01-15T10:02:36;0.40;1.00
8402;DHT22;4238;48.404;9.498;2024-01-15T10:05:04;0.40;1.00
8402;DHT22;4238;48.404;9.498;2024-01-15T10:07:34;0.50;99.90
8402;DHT22;4238;48.404;9.498;2024-01-15T10:10:03;0.50;1.00
8402;DHT22;4238;48.404;9.498;2024-01-15T10:12:30;0.40;1.00
8402;DHT22;4238;48.404;9.498;2024-01-15T10:14:57;0.50;1.00
8402;DHT22;4238;48.404;9.498;2024-01-15T10:17:24;0.50;99.90
8402;DHT22;4238;48.404;9.498;2024-01-15T10:19:53;0.50;99.90
8402;DHT22;4238;48.404;9.498;2024-01-15T10:22:20;0.60;99.90
8402;DHT22;4238;48.404;9.498;2024-01-15T10:24:47;0.70;99.90
8402;DHT22;4238;48.404;9.498;2024-01-15T10:27:15;0.80;72.10
8402;DHT22;4238;48.404;9.498;2024-01-15T10:29:42;0.90;1.00
8402;DHT22;4238;48.404;9.498;2024-01-15T10:32:09;1.00;99.90
8402;DHT22;4238;48.404;9.498;2024-01-15T10:34:38;1.00;1.00
8402;DHT22;4238;48.404;9.498;2024-01-15T10:37:07;1.10;1.00
8402;DHT22;4238;48.404;9.498;2024-01-15T10:39:35;1.10;1.00
8402;DHT22;4238;48.404;9.498;2024-01-15T10:42:02;0.90;1.00
8402;DHT22;4238;48.404;9.498;2024-01-15T10:44:31;1.00;1.00
8402;DHT22;4238;48.404;9.498;2024-01-15T10:46:57;1.00;1.00
8402;DHT22;4238;48.404;9.498;2024-01-15T10:49:25;1.00;1.00
8402;DHT22;4238;48.404;9.498;2024-01-15T10:51:53;1.00;1.00
8402;DHT22;4238;48.404;9.498;2024-01-15T10:54:21;1.10;1.00
8402;DHT22;4238;48.404;9.498;2024-01-15T10:56:50;1.00;1.00
8402;DHT22;4238;48.404;9.498;2024-01-15T10:59:20;1.00;1.00
8402;DHT22;4238;48.404;9.498;2024-01-15T11:01:49;1.00;1.00
8402;DHT22;4238;48.404;9.498;2024-01-15T11:04:19;1.00;1.00
8402;DHT22;4238;48.404;9.498;2024-01-15T11:06:49;1.10;1.00
8402;DHT22;4238;48.404;9.498;2024-01-15T11:09:17;1.20;34.20
8402;DHT22;4238;48.404;9.498;2024-01-15T11:11:45;1.30;33.70
8402;DHT22;4238;48.404;9.498;2024-01-15T11:14:38;1.30;14.00
8402;DHT22;4238;48.404;9.498;2024-01-15T11:17:06;1.20;1.00
8402;DHT22;4238;48.404;9.498;2024-01-15T11:19:37;1.10;1.00
8402;DHT22;4238;48.404;9.498;2024-01-15T11:22:07;1.10;1.00
8402;DHT22;4238;48.404;9.498;2024-01-15T11:24:35;1.10;36.00
8402;DHT22;4238;48.404;9.498;2024-01-15T11:27:03;1.10;1.00
8402;DHT22;4238;48.404;9.498;2024-01-15T11:29:31;1.00;25.50
8402;DHT22;4238;48.404;9.498;2024-01-15T11:32:01;1.10;99.90
8402;DHT22;4238;48.404;9.498;2024-01-15T11:34:54;1.10;99.90
8402;DHT22;4238;48.404;9.498;2024-01-15T11:37:23;1.00;99.90
8402;DHT22;4238;48.404;9.498;2024-01-15T11:39:52;1.00;99.90
8402;DHT22;4238;48.404;9.498;2024-01-15T11:42:20;1.00;99.90
8402;DHT22;4238;48.404;9.498;2024-01-15T11:44:47;0.90;1.00
8402;DHT22;4238;48.404;9.498;2024-01-15T11:47:14;0.90;1.00
8402;DHT22;4238;48.404;9.498;2024-01-15T11:50:00;0.90;11.30
8402;DHT22;4238;48.404;9.498;2024-01-15T11:52:32;0.90;1.00
8402;DHT22;4238;48.404;9.498;2024-01-15T11:55:05;0.90;99.90
8402;DHT22;4238;48.404;9.498;2024-01-15T11:57:41;0.90;99.90
8402;DHT22;4238;48.404;9.498;2024-01-15T12:00:09;0.90;1.00
8402;DHT22;4238;48.404;9.498;2024-01-15T12:02:37;1.00;99.90
8402;DHT22;4238;48.404;9.498;2024-01-15T12:05:06;1.00;99.90
8402;DHT22;4238;48.404;9.498;2024-01-15T12:07:33;1.10;99.90
8402;DHT22;4238;48.404;9.498;2024-01-15T12:10:00;1.00;1.00
8402;DHT22;4238;48.404;9.498;2024-01-15T12:12:34;1.00;1.00
8402;DHT22;4238;48.404;9.498;2024-01-15T12:15:04;0.90;99.90
8402;DHT22;4238;48.404;9.498;2024-01-15T12:17:31;0.90;99.90
8402;DHT22;4238;48.404;9.498;2024-01-15T12:19:58;1.00;99.90
8402;DHT22;4238;48.404;9.498;2024-01-15T12:22:26;1.00;1.00
8402;DHT22;4238;48.404;9.498;2024-01-15T12:24:54;0.90;15.40
8402;DHT22;4238;48.404;9.498;2024-01-15T12:27:21;0.80;1.00
8402;DHT22;4238;48.404;9.498;2024-01-15T12:29:48;0.80;1.00
8402;DHT22;4238;48.404;9.498;2024-01-15T12:32:15;0.70;1.00
8402;DHT22;4238;48.404;9.498;2024-01-15T12:34:43;0.60;1.00
8402;DHT22;4238;48.404;9.498;2024-01-15T12:37:10;0.40;99.90
8402;DHT22;4238;48.404;9.498;2024-01-15T12:39:39;0.40;1.00
8402;DHT22;4238;48.404;9.498;2024-01-15T12:42:09;0.30;1.00
8402;DHT22;4238;48.404;9.498;2024-01-15T12:44:36;0.20;99.90
8402;DHT22;4238;48.404;9.498;2024-01-15T12:47:04;0.20;1.00
8402;DHT22;4238;48.404;9.498;2024-01-15T12:49:31;0.20;1.00
8402;DHT22;4238;48.404;9.498;2024-01-15T12:51:58;0.20;99.90
8402;DHT22;4238;48.404;9.498;2024-01-15T12:54:26;0.20;99.90
8402;DHT22;4238;48.404;9.498;2024-01-15T12:56:54;0.10;1.00
8402;DHT22;4238;48.404;9.498;2024-01-15T12:59:21;0.20;1.00
8402;DHT22;4238;48.404;9.498;2024-01-15T13:01:48;0.20;1.00
8402;DHT22;4238;48.404;9.498;2024-01-15T13:04:21;0.20;99.90
8402;DHT22;4238;48.404;9.498;2024-01-15T13:06:49;0.20;1.00
8402;DHT22;4238;48.404;9.498;2024-01-15T13:09:16;0.20;1.00
8402;DHT22;4238;48.404;9.498;2024-01-15T13:11:43;0.20;1.00
8402;DHT22;4238;48.404;9.498;2024-01-15T13:14:12;0.10;1.00
8402;DHT22;4238;48.404;9.498;2024-01-15T13:16:40;0.10;1.00
8402;DHT22;4238;48.404;9.498;2024-01-15T13:19:07;0.10;1.00
8402;DHT22;4238;48.404;9.498;2024-01-15T13:21:36;0.10;1.00
8402;DHT22;4238;48.404;9.498;2024-01-15T13:24:10;0.20;1.00
8402;DHT22;4238;48.404;9.498;2024-01-15T13:26:37;0.20;1.00
8402;DHT22;4238;48.404;9.498;2024-01-15T13:29:04;0.10;1.00
8402;DHT22;4238;48.404;9.498;2024-01-15T13:31:33;0.10;1.00
8402;DHT22;4238;48.404;9.498;2024-01-15T13:34:00;0.10;1.00
8402;DHT22;4238;48.404;9.498;2024-01-15T13:36:27;0.10;1.00
8402;DHT22;4238;48.404;9.498;2024-01-15T13:38:55;0.10;1.00
8402;DHT22;4238;48.404;9.498;2024-01-15T13:41:22;0.10;1.00
8402;DHT22;4238;48.404;9.498;2024-01-15T13:43:53;0.10;1.00
8402;DHT22;4238;48.404;9.498;2024-01-15T13:46:23;0.10;1.00
8402;DHT22;4238;48.404;9.498;2024-01-15T13:48:53;0.10;1.00
8402;DHT22;4238;48.404;9.498;2024-01-15T13:51:22;0.00;1.00
8402;DHT22;4238;48.404;9.498;2024-01-15T13:53:49;0.10;1.00
8402;DHT22;4238;48.404;9.498;2024-01-15T13:56:16;0.00;1.00
8402;DHT22;4238;48.404;9.498;2024-01-15T13:58:42;0.00;1.00
8402;DHT22;4238;48.404;9.498;2024-01-15T14:01:09;0.00;1.00
8402;DHT22;4238;48.404;9.498;2024-01-15T14:03:36;0.00;8.30
8402;DHT22;4238;48.404;9.498;2024-01-15T14:06:04;0.00;19.60
8402;DHT22;4238;48.404;9.498;2024-01-15T14:08:34;-0.10;22.80
8402;DHT22;4238;48.404;9.498;2024-01-15T14:11:01;-0.20;21.50
8402;DHT22;4238;48.404;9.498;2024-01-15T14:13:28;-0.30;32.10
8402;DHT22;4238;48.404;9.498;2024-01-15T14:15:55;-0.20;40.20
8402;DHT22;4238;48.404;9.498;2024-01-15T14:18:22;-0.30;37.20
8402;DHT22;4238;48.404;9.498;2024-01-15T14:20:49;-0.30;52.50
8402;DHT22;4238;48.404;9.498;2024-01-15T14:23:17;-0.40;62.80
8402;DHT22;4238;48.404;9.498;2024-01-15T14:25:45;-0.30;68.40
8402;DHT22;4238;48.404;9.498;2024-01-15T14:28:11;-0.30;69.00
8402;DHT22;4238;48.404;9.498;2024-01-15T14:30:38;-0.30;67.90
8402;DHT22;4238;48.404;9.498;2024-01-15T14:33:05;-0.40;68.40
8402;DHT22;4238;48.404;9.498;2024-01-15T14:35:32;-0.40;64.80
8402;DHT22;4238;48.404;9.498;2024-01-15T14:37:59;-0.40;67.10
8402;DHT22;4238;48.404;9.498;2024-01-15T14:40:27;-0.30;62.70
8402;DHT22;4238;48.404;9.498;2024-01-15T14:42:55;-0.40;55.50
8402;DHT22;4238;48.404;9.498;2024-01-15T14:45:22;-0.40;57.70
8402;DHT22;4238;48.404;9.498;2024-01-15T14:47:49;-0.30;62.20
8402;DHT22;4238;48.404;9.498;2024-01-15T14:50:16;-0.40;59.10
8402;DHT22;4238;48.404;9.498;2024-01-15T14:52:42;-0.40;62.10
8402;DHT22;4238;48.404;9.498;2024-01-15T14:55:10;-0.40;63.70
8402;DHT22;4238;48.404;9.498;2024-01-15T14:57:38;-0.40;63.30
8402;DHT22;4238;48.404;9.498;2024-01-15T15:00:06;-0.40;67.50
8402;DHT22;4238;48.404;9.498;2024-01-15T15:02:34;-0.40;70.30
8402;DHT22;4238;48.404;9.498;2024-01-15T15:05:02;-0.40;69.00
8402;DHT22;4238;48.404;9.498;2024-01-15T15:07:29;-0.50;74.70
8402;DHT22;4238;48.404;9.498;2024-01-15T15:09:56;-0.50;79.30
8402;DHT22;4238;48.404;9.498;2024-01-15T15:12:23;-0.50;85.70
8402;DHT22;4238;48.404;9.498;2024-01-15T15:14:51;-0.50;91.00
8402;DHT22;4238;48.404;9.498;2024-01-15T15:17:18;-0.50;93.50
8402;DHT22;4238;48.404;9.498;2024-01-15T15:19:45;-0.60;94.20
8402;DHT22;4238;48.404;9.498;2024-01-15T15:22:12;-0.60;97.00
8402;DHT22;4238;48.404;9.498;2024-01-15T15:24:39;-0.60;96.10
8402;DHT22;4238;48.404;9.498;2024-01-15T15:27:05;-0.60;95.30
8402;DHT22;4238;48.404;9.498;2024-01-15T15:29:33;-0.60;94.70
8402;DHT22;4238;48.404;9.498;2024-01-15T15:32:02;-0.60;96.50
8402;DHT22;4238;48.404;9.498;2024-01-15T15:34:29;-0.60;95.70
8402;DHT22;4238;48.404;9.498;2024-01-15T15:36:55;-0.70;95.50
8402;DHT22;4238;48.404;9.498;2024-01-15T15:39:22;-0.70;96.80
8402;DHT22;4238;48.404;9.498;2024-01-15T15:41:50;-0.80;77.50
8402;DHT22;4238;48.404;9.498;2024-01-15T15:44:17;-0.80;66.30
8402;DHT22;4238;48.404;9.498;2024-01-15T15:46:44;-0.80;70.90
8402;DHT22;4238;48.404;9.498;2024-01-15T15:49:12;-0.90;58.60
8402;DHT22;4238;48.404;9.498;2024-01-15T15:51:40;-1.00;56.10
8402;DHT22;4238;48.404;9.498;2024-01-15T15:54:07;-1.00;56.50
8402;DHT22;4238;48.404;9.498;2024-01-15T15:56:34;-1.10;62.00
8402;DHT22;4238;48.404;9.498;2024-01-15T15:59:04;-1.10;49.40
8402;DHT22;4238;48.404;9.498;2024-01-15T16:01:31;-1.10;45.10
8402;DHT22;4238;48.404;9.498;2024-01-15T16:03:58;-1.10;44.50
8402;DHT22;4238;48.404;9.498;2024-01-15T16:06:27;-1.10;44.80
8402;DHT22;4238;48.404;9.498;2024-01-15T16:08:54;-1.20;45.80
8402;DHT22;4238;48.404;9.498;2024-01-15T16:11:21;-1.30;44.70
8402;DHT22;4238;48.404;9.498;2024-01-15T16:13:48;-1.30;37.40
8402;DHT22;4238;48.404;9.498;2024-01-15T16:16:15;-1.40;27.00
8402;DHT22;4238;48.404;9.498;2024-01-15T16:18:42;-1.40;18.20
8402;DHT22;4238;48.404;9.498;2024-01-15T16:21:10;-1.30;25.80
8402;DHT22;4238;48.404;9.498;2024-01-15T16:23:38;-1.40;29.10
8402;DHT22;4238;48.404;9.498;2024-01-15T16:26:05;-1.30;32.00
8402;DHT22;4238;48.404;9.498;2024-01-15T16:28:32;-1.30;29.70
8402;DHT22;4238;48.404;9.498;2024-01-15T16:30:59;-1.30;34.50
8402;DHT22;4238;48.404;9.498;2024-01-15T16:33:26;-1.30;38.90
8402;DHT22;4238;48.404;9.498;2024-01-15T16:35:52;-1.30;34.70
8402;DHT22;4238;48.404;9.498;2024-01-15T16:38:19;-1.30;38.40
8402;DHT22;4238;48.404;9.498;2024-01-15T16:40:47;-1.20;36.60
8402;DHT22;4238;48.404;9.498;2024-01-15T16:43:14;-1.30;32.40
8402;DHT22;4238;48.404;9.498;2024-01-15T16:45:41;-1.30;27.40
8402;DHT22;4238;48.404;9.498;2024-01-15T16:48:08;-1.30;21.40
8402;DHT22;4238;48.404;9.498;2024-01-15T16:50:35;-1.20;23.00
8402;DHT22;4238;48.404;9.498;2024-01-15T16:53:02;-1.30;25.30
8402;DHT22;4238;48.404;9.498;2024-01-15T16:55:29;-1.40;24.90
8402;DHT22;4238;48.404;9.498;2024-01-15T16:57:57;-1.40;31.40
8402;DHT22;4238;48.404;9.498;2024-01-15T17:00:24;-1.30;26.30
8402;DHT22;4238;48.404;9.498;2024-01-15T17:02:52;-1.40;17.30
8402;DHT22;4238;48.404;9.498;2024-01-15T17:05:22;-1.40;23.00
8402;DHT22;4238;48.404;9.498;2024-01-15T17:07:49;-1.40;18.50
8402;DHT22;4238;48.404;9.498;2024-01-15T17:10:16;-1.40;13.50
8402;DHT22;4238;48.404;9.498;2024-01-15T17:12:43;-1.40;15.20
8402;DHT22;4238;48.404;9.498;2024-01-15T17:15:11;-1.40;23.20
8402;DHT22;4238;48.404;9.498;2024-01-15T17:17:38;-1.40;19.50
8402;DHT22;4238;48.404;9.498;2024-01-15T17:20:06;-1.50;25.20
8402;DHT22;4238;48.404;9.498;2024-01-15T17:22:34;-1.50;25.60
8402;DHT22;4238;48.404;9.498;2024-01-15T17:25:02;-1.60;17.80
8402;DHT22;4238;48.404;9.498;2024-01-15T17:27:29;-1.60;18.20
8402;DHT22;4238;48.404;9.498;2024-01-15T17:29:55;-1.60;16.30
8402;DHT22;4238;48.404;9.498;2024-01-15T17:32:23;-1.60;14.10
8402;DHT22;4238;48.404;9.498;2024-01-15T17:34:50;-1.50;12.40
8402;DHT22;4238;48.404;9.498;2024-01-15T17:37:17;-1.60;6.30
8402;DHT22;4238;48.404;9.498;2024-01-15T17:39:44;-1.60;2.60
8402;DHT22;4238;48.404;9.498;2024-01-15T17:42:11;-1.70;1.00
8402;DHT22;4238;48.404;9.498;2024-01-15T17:44:39;-1.70;1.00
8402;DHT22;4238;48.404;9.498;2024-01-15T17:47:07;-1.70;1.00
8402;DHT22;4238;48.404;9.498;2024-01-15T17:49:35;-1.70;1.00
8402;DHT22;4238;48.404;9.498;2024-01-15T17:52:03;-1.70;1.00
8402;DHT22;4238;48.404;9.498;2024-01-15T17:54:30;-1.60;1.00
8402;DHT22;4238;48.404;9.498;2024-01-15T17:56:56;-1.60;1.00
8402;DHT22;4238;48.404;9.498;2024-01-15T17:59:23;-1.60;1.00
8402;DHT22;4238;48.404;9.498;2024-01-15T18:01:50;-1.60;1.00
8402;DHT22;4238;48.404;9.498;2024-01-15T18:04:17;-1.60;1.00
8402;DHT22;4238;48.404;9.498;2024-01-15T18:06:47;-1.50;1.00
8402;DHT22;4238;48.404;9.498;2024-01-15T18:09:14;-1.50;1.00
8402;DHT22;4238;48.404;9.498;2024-01-15T18:11:42;-1.50;1.00
8402;DHT22;4238;48.404;9.498;2024-01-15T18:14:09;-1.50;1.00
8402;DHT22;4238;48.404;9.498;2024-01-15T18:16:37;-1.50;1.00
8402;DHT22;4238;48.404;9.498;2024-01-15T18:19:04;-1.40;1.00
8402;DHT22;4238;48.404;9.498;2024-01-15T18:21:31;-1.50;1.00
8402;DHT22;4238;48.404;9.498;2024-01-15T18:24:00;-1.50;1.00
8402;DHT22;4238;48.404;9.498;2024-01-15T18:26:26;-1.50;1.00
8402;DHT22;4238;48.404;9.498;2024-01-15T18:28:53;-1.50;1.00
8402;DHT22;4238;48.404;9.498;2024-01-15T18:31:20;-1.50;1.00
8402;DHT22;4238;48.404;9.498;2024-01-15T18:33:47;-1.60;1.00
8402;DHT22;4238;48.404;9.498;2024-01-15T18:36:14;-1.60;1.00
8402;DHT22;4238;48.404;9.498;2024-01-15T18:38:41;-1.50;1.00
8402;DHT22;4238;48.404;9.498;2024-01-15T18:41:19;-1.60;1.00
8402;DHT22;4238;48.404;9.498;2024-01-15T18:43:46;-1.70;1.00
8402;DHT22;4238;48.404;9.498;2024-01-15T18:46:13;-1.60;1.00
8402;DHT22;4238;48.404;9.498;2024-01-15T18:48:39;-1.70;1.00
8402;DHT22;4238;48.404;9.498;2024-01-15T18:51:06;-1.80;1.00
8402;DHT22;4238;48.404;9.498;2024-01-15T18:53:33;-1.80;1.00
8402;DHT22;4238;48.404;9.498;2024-01-15T18:56:01;-1.70;1.00
8402;DHT22;4238;48.404;9.498;2024-01-15T18:58:29;-1.70;1.00
8402;DHT22;4238;48.404;9.498;2024-01-15T19:00:56;-1.70;1.00
8402;DHT22;4238;48.404;9.498;2024-01-15T19:03:24;-1.60;1.00
8402;DHT22;4238;48.404;9.498;2024-01-15T19:05:51;-1.70;1.00
8402;DHT22;4238;48.404;9.498;2024-01-15T19:08:17;-1.70;1.00
8402;DHT22;4238;48.404;9.498;2024-01-15T19:10:44;-1.80;1.00
8402;DHT22;4238;48.404;9.498;2024-01-15T19:13:11;-1.70;1.00
8402;DHT22;4238;48.404;9.498;2024-01-15T19:15:40;-1.70;1.00
8402;DHT22;4238;48.404;9.498;2024-01-15T19:18:06;-1.70;1.00
8402;DHT22;4238;48.404;9.498;2024-01-15T19:20:33;-1.70;1.00
8402;DHT22;4238;48.404;9.498;2024-01-15T19:23:00;-1.70;1.00
8402;DHT22;4238;48.404;9.498;2024-01-15T19:25:27;-1.80;1.00
8402;DHT22;4238;48.404;9.498;2024-01-15T19:27:54;-1.70;1.00
8402;DHT22;4238;48.404;9.498;2024-01-15T19:30:21;-1.70;1.00
8402;DHT22;4238;48.404;9.498;2024-01-15T19:32:49;-1.60;1.00
8402;DHT22;4238;48.404;9.498;2024-01-15T19:35:16;-1.80;1.00
8402;DHT22;4238;48.404;9.498;2024-01-15T19:37:42;-1.70;1.00
8402;DHT22;4238;48.404;9.498;2024-01-15T19:40:10;-1.70;1.00
8402;DHT22;4238;48.404;9.498;2024-01-15T19:42:37;-1.70;1.00
8402;DHT22;4238;48.404;9.498;2024-01-15T19:45:05;-1.70;1.00
8402;DHT22;4238;48.404;9.498;2024-01-15T19:47:32;-1.70;1.00
8402;DHT22;4238;48.404;9.498;2024-01-15T19:50:00;-1.70;1.00
8402;DHT22;4238;48.404;9.498;2024-01-15T19:52:27;-1.70;1.00
8402;DHT22;4238;48.404;9.498;2024-01-15T19:54:54;-1.60;1.00
8402;DHT22;4238;48.404;9.498;2024-01-15T19:57:22;-1.60;1.00
8402;DHT22;4238;48.404;9.498;2024-01-15T19:59:48;-1.60;1.00
8402;DHT22;4238;48.404;9.498;2024-01-15T20:02:19;-1.70;1.00
8402;DHT22;4238;48.404;9.498;2024-01-15T20:04:45;-1.70;1.00
8402;DHT22;4238;48.404;9.498;2024-01-15T20:07:14;-1.70;1.00
8402;DHT22;4238;48.404;9.498;2024-01-15T20:09:41;-1.70;1.00
8402;DHT22;4238;48.404;9.498;2024-01-15T20:12:08;-1.70;1.00
8402;DHT22;4238;48.404;9.498;2024-01-15T20:14:34;-1.70;1.00
8402;DHT22;4238;48.404;9.498;2024-01-15T20:17:01;-1.70;1.00
8402;DHT22;4238;48.404;9.498;2024-01-15T20:19:29;-1.70;1.00
8402;DHT22;4238;48.404;9.498;2024-01-15T20:21:56;-1.70;1.00
8402;DHT22;4238;48.404;9.498;2024-01-15T20:24:25;-1.70;1.00
8402;DHT22;4238;48.404;9.498;2024-01-15T20:26:52;-1.70;1.00
8402;DHT22;4238;48.404;9.498;2024-01-15T20:29:19;-1.70;1.00
8402;DHT22;4238;48.404;9.498;2024-01-15T20:31:46;-1.70;1.00
8402;DHT22;4238;48.404;9.498;2024-01-15T20:34:13;-1.70;1.00
8402;DHT22;4238;48.404;9.498;2024-01-15T20:36:40;-1.80;1.00
8402;DHT22;4238;48.404;9.498;2024-01-15T20:39:07;-1.80;1.00
8402;DHT22;4238;48.404;9.498;2024-01-15T20:41:36;-1.90;1.00
8402;DHT22;4238;48.404;9.498;2024-01-15T20:44:04;-1.80;1.00
8402;DHT22;4238;48.404;9.498;2024-01-15T20:46:31;-1.80;1.00
8402;DHT22;4238;48.404;9.498;2024-01-15T20:48:58;-1.80;1.00
8402;DHT22;4238;48.404;9.498;2024-01-15T20:51:24;-1.80;1.00
8402;DHT22;4238;48.404;9.498;2024-01-15T20:53:51;-1.90;1.00
8402;DHT22;4238;48.404;9.498;2024-01-15T20:56:19;-1.90;1.00
8402;DHT22;4238;48.404;9.498;2024-01-15T20:58:47;-2.00;1.00
8402;DHT22;4238;48.404;9.498;2024-01-15T21:01:15;-2.00;1.00
8402;DHT22;4238;48.404;9.498;2024-01-15T21:03:43;-2.00;1.00
8402;DHT22;4238;48.404;9.498;2024-01-15T21:06:10;-2.00;1.00
8402;DHT22;4238;48.404;9.498;2024-01-15T21:08:37;-2.00;1.00
8402;DHT22;4238;48.404;9.498;2024-01-15T21:11:05;-2.10;1.00
8402;DHT22;4238;48.404;9.498;2024-01-15T21:13:32;-2.20;1.00
8402;DHT22;4238;48.404;9.498;2024-01-15T21:16:01;-2.20;1.00